Time;durP1;ratioP1;P1;durP2;ratioP2;P2;SDS_P1;SDS_P2;PMS_P1;PMS_P2;Temp;Humidity;BMP_temperature;BMP_pressure;BME280_temperature;BME280_humidity;BME280_pressure;Samples;Min_cycle;Max_cycle;Signal;HPM_P1;HPM_P2
2023/09/27 00:00:36;;;;;;;11.35;8.57;;;16.40;99.90;;;;;;4985028;28;20077;-34
2023/09/27 00:03:03;;;;;;;9.43;7.80;;;16.30;99.90;;;;;;4983030;28;20042;-34
2023/09/27 00:05:29;;;;;;;12.35;9.07;;;16.30;99.90;;;;;;4967500;28;20508;-34
2023/09/27 00:07:56;;;;;;;10.20;7.90;;;16.20;99.90;;;;;;4985761;28;20074;-34
2023/09/27 00:10:22;;;;;;;10.77;7.88;;;16.20;99.90;;;;;;4983604;28;20054;-34
2023/09/27 00:12:48;;;;;;;10.88;7.68;;;16.20;99.90;;;;;;4988315;28;20046;-34
2023/09/27 00:15:14;;;;;;;12.57;9.27;;;16.20;99.90;;;;;;4987832;28;20050;-34
2023/09/27 00:17:41;;;;;;;12.20;9.82;;;16.10;99.90;;;;;;4983565;28;20050;-34
2023/09/27 00:20:11;;;;;;;9.27;7.35;;;16.10;99.90;;;;;;4986296;28;20507;-34
2023/09/27 00:22:37;;;;;;;11.88;8.85;;;16.10;99.90;;;;;;4982312;28;20046;-34
2023/09/27 00:25:05;;;;;;;11.77;9.75;;;16.10;99.90;;;;;;4987226;28;20526;-34
2023/09/27 00:27:31;;;;;;;11.40;8.55;;;16.00;99.90;;;;;;4966233;28;20055;-34
2023/09/27 00:29:57;;;;;;;13.90;10.02;;;16.00;99.90;;;;;;4982190;28;20764;-34
2023/09/27 00:32:23;;;;;;;12.13;9.68;;;15.90;99.90;;;;;;4968056;28;20057;-34
2023/09/27 00:34:49;;;;;;;12.15;9.52;;;15.90;99.90;;;;;;4981871;28;20095;-34
2023/09/27 00:37:14;;;;;;;13.55;10.68;;;15.80;99.90;;;;;;4985200;28;20456;-34
2023/09/27 00:39:41;;;;;;;12.82;9.68;;;15.80;99.90;;;;;;4980160;28;20074;-34
2023/09/27 00:42:07;;;;;;;12.48;9.23;;;15.80;99.90;;;;;;4984128;28;20061;-34
2023/09/27 00:44:34;;;;;;;14.82;10.15;;;15.70;99.90;;;;;;4987502;28;20065;-34
2023/09/27 00:47:01;;;;;;;12.98;9.38;;;15.60;99.90;;;;;;4985827;28;20591;-33
2023/09/27 00:49:27;;;;;;;14.07;9.75;;;15.60;99.90;;;;;;4983660;28;20058;-34
2023/09/27 00:51:53;;;;;;;14.30;10.45;;;15.50;99.90;;;;;;4979331;28;20058;-34
2023/09/27 00:54:19;;;;;;;14.18;10.82;;;15.50;99.90;;;;;;4986336;28;20511;-34
2023/09/27 00:56:47;;;;;;;15.00;11.40;;;15.50;99.90;;;;;;4980447;28;20136;-34
2023/09/27 00:59:15;;;;;;;14.10;10.88;;;15.50;99.90;;;;;;4984291;28;20050;-35
2023/09/27 01:01:41;;;;;;;13.80;10.45;;;15.40;99.90;;;;;;4983431;28;20445;-34
2023/09/27 01:04:08;;;;;;;13.73;9.90;;;15.40;99.90;;;;;;4988357;28;20061;-35
2023/09/27 01:06:34;;;;;;;12.82;9.52;;;15.40;99.90;;;;;;4983483;28;20173;-34
2023/09/27 01:09:00;;;;;;;13.15;10.05;;;15.30;99.90;;;;;;4985455;28;20046;-34
2023/09/27 01:11:26;;;;;;;16.33;10.80;;;15.30;99.90;;;;;;4984805;28;20108;-35
2023/09/27 01:13:52;;;;;;;12.40;10.40;;;15.30;99.90;;;;;;4997747;28;20081;-35
2023/09/27 01:16:18;;;;;;;13.43;10.25;;;15.20;99.90;;;;;;4986143;28;20042;-35
2023/09/27 01:18:43;;;;;;;13.32;10.55;;;15.20;99.90;;;;;;4984933;28;20046;-35
2023/09/27 01:21:09;;;;;;;16.10;11.88;;;15.20;99.90;;;;;;4983591;28;20046;-34
2023/09/27 01:23:38;;;;;;;11.63;9.10;;;15.20;99.90;;;;;;4987068;28;20050;-34
2023/09/27 01:26:08;;;;;;;13.18;10.40;;;15.20;99.90;;;;;;4983813;28;20546;-34
2023/09/27 01:28:35;;;;;;;11.63;9.10;;;15.20;99.90;;;;;;4986247;28;20109;-34
2023/09/27 01:31:01;;;;;;;16.38;10.15;;;15.20;99.90;;;;;;4984684;28;20115;-34
2023/09/27 01:33:27;;;;;;;15.80;10.93;;;15.10;99.90;;;;;;4983574;28;20459;-34
2023/09/27 01:35:55;;;;;;;12.95;9.43;;;15.10;99.90;;;;;;4979884;28;20595;-34
2023/09/27 01:38:21;;;;;;;13.68;10.45;;;15.10;99.90;;;;;;4980593;28;21821;-34
2023/09/27 01:40:46;;;;;;;13.40;10.65;;;15.10;99.90;;;;;;4985195;28;20046;-34
2023/09/27 01:43:12;;;;;;;13.60;10.38;;;15.10;99.90;;;;;;4983658;28;20531;-34
2023/09/27 01:45:38;;;;;;;10.80;8.18;;;15.10;99.90;;;;;;4967755;28;20058;-34
2023/09/27 01:48:05;;;;;;;12.85;9.65;;;15.10;99.90;;;;;;4981959;28;20054;-34
2023/09/27 01:50:33;;;;;;;12.57;9.82;;;15.10;99.90;;;;;;4983725;28;20062;-34
2023/09/27 01:52:59;;;;;;;11.55;9.00;;;15.10;99.90;;;;;;4985495;28;20062;-34
2023/09/27 01:55:25;;;;;;;14.65;9.82;;;15.00;99.90;;;;;;4982559;28;20466;-34
2023/09/27 01:57:51;;;;;;;12.68;9.50;;;15.00;99.90;;;;;;4967309;28;20460;-34
2023/09/27 02:00:18;;;;;;;12.75;9.88;;;15.00;99.90;;;;;;4982008;28;20062;-34
2023/09/27 02:02:48;;;;;;;13.35;10.45;;;14.90;99.90;;;;;;4996919;28;20053;-34
2023/09/27 02:05:14;;;;;;;13.80;10.27;;;14.90;99.90;;;;;;4982047;28;20054;-34
2023/09/27 02:07:40;;;;;;;14.07;10.40;;;14.90;99.90;;;;;;4984056;28;20058;-34
2023/09/27 02:10:08;;;;;;;12.57;9.98;;;14.90;99.90;;;;;;4984733;28;20574;-34
2023/09/27 02:12:34;;;;;;;13.60;10.30;;;14.90;99.90;;;;;;4982292;28;20050;-34
2023/09/27 02:15:00;;;;;;;14.65;9.85;;;14.90;99.90;;;;;;4985026;28;20054;-35
2023/09/27 02:17:26;;;;;;;13.05;10.75;;;14.90;99.90;;;;;;4984087;28;20065;-36
2023/09/27 02:19:51;;;;;;;13.85;9.90;;;14.90;99.90;;;;;;4966753;28;20419;-35
2023/09/27 02:22:18;;;;;;;14.38;11.07;;;14.80;99.90;;;;;;4979850;28;20066;-35
2023/09/27 02:24:44;;;;;;;12.70;9.40;;;14.80;99.90;;;;;;4986215;28;20433;-35
2023/09/27 02:27:10;;;;;;;13.45;10.43;;;14.80;99.90;;;;;;4983782;28;20112;-35
2023/09/27 02:29:37;;;;;;;13.23;10.52;;;14.80;99.90;;;;;;4968514;28;20069;-35
2023/09/27 02:32:04;;;;;;;13.52;9.70;;;14.80;99.90;;;;;;4983403;28;20058;-35
2023/09/27 02:34:30;;;;;;;14.15;10.02;;;14.80;99.90;;;;;;4981557;28;20054;-35
2023/09/27 02:36:56;;;;;;;14.13;11.00;;;14.80;99.90;;;;;;4984483;28;20065;-35
2023/09/27 02:39:22;;;;;;;13.52;11.10;;;14.70;99.90;;;;;;4983803;28;20058;-34
2023/09/27 02:41:48;;;;;;;13.82;10.85;;;14.70;99.90;;;;;;4985679;28;20070;-35
2023/09/27 02:44:13;;;;;;;15.32;11.63;;;14.70;99.90;;;;;;4984263;28;20053;-35
2023/09/27 02:46:44;;;;;;;13.02;10.57;;;14.70;99.90;;;;;;4985570;28;20054;-34
2023/09/27 02:49:10;;;;;;;14.80;11.13;;;14.70;99.90;;;;;;4980934;28;20054;-34
2023/09/27 02:51:37;;;;;;;16.73;11.95;;;14.60;99.90;;;;;;4984054;28;20432;-35
2023/09/27 02:54:04;;;;;;;13.02;10.50;;;14.60;99.90;;;;;;4986545;28;20046;-35
2023/09/27 02:56:30;;;;;;;14.40;11.18;;;14.60;99.90;;;;;;4985074;28;20192;-34
2023/09/27 02:58:56;;;;;;;13.10;10.52;;;14.60;99.90;;;;;;4979756;28;20141;-35
2023/09/27 03:01:21;;;;;;;15.57;11.85;;;14.60;99.90;;;;;;4983597;28;20527;-35
2023/09/27 03:03:47;;;;;;;14.52;11.60;;;14.60;99.90;;;;;;4984803;28;20054;-35
2023/09/27 03:06:14;;;;;;;15.10;11.15;;;14.60;99.90;;;;;;4985213;28;20046;-35
2023/09/27 03:08:42;;;;;;;14.48;11.00;;;14.50;99.90;;;;;;4978399;28;20073;-34
2023/09/27 03:11:09;;;;;;;15.85;11.30;;;14.50;99.90;;;;;;4981282;28;20511;-34
2023/09/27 03:13:36;;;;;;;15.30;11.73;;;14.50;99.90;;;;;;4982197;28;21261;-34
2023/09/27 03:16:02;;;;;;;15.88;11.50;;;14.50;99.90;;;;;;4985271;28;21618;-34
2023/09/27 03:18:28;;;;;;;15.55;10.88;;;14.50;99.90;;;;;;4981340;28;20116;-34
2023/09/27 03:20:54;;;;;;;14.50;11.73;;;14.50;99.90;;;;;;4984726;28;20704;-34
2023/09/27 03:23:19;;;;;;;15.05;11.93;;;14.50;99.90;;;;;;4979407;28;20082;-34
2023/09/27 03:25:48;;;;;;;13.68;11.52;;;14.50;99.90;;;;;;4983341;28;20049;-34
2023/09/27 03:28:14;;;;;;;15.80;11.93;;;14.50;99.90;;;;;;4985383;28;20045;-34
2023/09/27 03:30:40;;;;;;;13.82;10.52;;;14.40;99.90;;;;;;4989356;28;20058;-34
2023/09/27 03:33:06;;;;;;;15.18;10.80;;;14.40;99.90;;;;;;4980365;28;20523;-34
2023/09/27 03:35:32;;;;;;;15.90;11.93;;;14.40;99.90;;;;;;4987483;28;20105;-34
2023/09/27 03:37:57;;;;;;;22.20;11.98;;;14.40;99.90;;;;;;4981892;28;20050;-34
2023/09/27 03:40:23;;;;;;;13.55;11.02;;;14.40;99.90;;;;;;4987598;28;20413;-34
2023/09/27 03:42:49;;;;;;;13.50;11.05;;;14.30;99.90;;;;;;4988005;28;20058;-34
2023/09/27 03:45:16;;;;;;;14.52;11.20;;;14.30;99.90;;;;;;4987726;28;20046;-34
2023/09/27 03:47:44;;;;;;;14.68;10.45;;;14.30;99.90;;;;;;4985578;28;20431;-34
2023/09/27 03:50:12;;;;;;;13.10;10.10;;;14.30;99.90;;;;;;4967354;28;20073;-34
2023/09/27 03:52:40;;;;;;;13.45;10.20;;;14.30;99.90;;;;;;4995659;28;20480;-34
2023/09/27 03:55:07;;;;;;;12.98;9.65;;;14.30;99.90;;;;;;4984844;28;20050;-34
2023/09/27 03:57:33;;;;;;;14.90;11.48;;;14.20;99.90;;;;;;4963719;28;20050;-34
2023/09/27 03:59:59;;;;;;;10.90;9.00;;;14.20;99.90;;;;;;4986644;28;20042;-34
2023/09/27 04:02:25;;;;;;;15.35;12.20;;;14.20;99.90;;;;;;4986769;28;20226;-34
2023/09/27 04:04:51;;;;;;;13.35;11.35;;;14.20;99.90;;;;;;4987198;28;20129;-34
2023/09/27 04:07:18;;;;;;;14.85;12.20;;;14.20;99.90;;;;;;4988991;28;20501;-34
2023/09/27 04:09:45;;;;;;;16.63;12.43;;;14.20;99.90;;;;;;4985961;28;20145;-34
2023/09/27 04:12:11;;;;;;;16.27;11.50;;;14.10;99.90;;;;;;4986131;28;20046;-34
2023/09/27 04:14:38;;;;;;;13.85;10.40;;;14.10;99.90;;;;;;4982832;28;20069;-34
2023/09/27 04:17:03;;;;;;;14.05;11.00;;;14.00;99.90;;;;;;4985746;28;20054;-34
2023/09/27 04:19:30;;;;;;;13.35;9.50;;;14.00;99.90;;;;;;4984669;28;20547;-34
2023/09/27 04:21:56;;;;;;;10.98;8.98;;;14.00;99.90;;;;;;4987967;28;20516;-34
2023/09/27 04:24:23;;;;;;;13.73;11.07;;;13.90;99.90;;;;;;4984879;28;20058;-34
2023/09/27 04:26:48;;;;;;;11.85;9.27;;;13.90;99.90;;;;;;4986404;28;20047;-34
2023/09/27 04:29:15;;;;;;;11.10;8.88;;;13.80;99.90;;;;;;4986331;28;20476;-34
2023/09/27 04:31:41;;;;;;;13.80;8.88;;;13.80;99.90;;;;;;4966830;28;20039;-34
2023/09/27 04:34:06;;;;;;;12.60;10.43;;;13.80;99.90;;;;;;4984192;28;20039;-34
2023/09/27 04:36:32;;;;;;;16.05;10.93;;;13.80;99.90;;;;;;4983043;28;20488;-34
2023/09/27 04:38:58;;;;;;;13.82;11.18;;;13.80;99.90;;;;;;4987446;28;20050;-34
2023/09/27 04:41:24;;;;;;;12.73;10.20;;;13.70;99.90;;;;;;4982935;28;20064;-34
2023/09/27 04:43:49;;;;;;;14.30;10.38;;;13.70;99.90;;;;;;4986209;28;20129;-34
2023/09/27 04:46:17;;;;;;;12.27;9.85;;;13.70;99.90;;;;;;4986356;28;20039;-34
2023/09/27 04:48:43;;;;;;;12.95;10.93;;;13.70;99.90;;;;;;4980008;28;20528;-34
2023/09/27 04:51:09;;;;;;;11.48;9.70;;;13.60;99.90;;;;;;4985207;28;20050;-34
2023/09/27 04:53:37;;;;;;;12.60;10.15;;;13.60;99.90;;;;;;4986934;28;20050;-34
2023/09/27 04:56:07;;;;;;;14.25;11.70;;;13.60;99.90;;;;;;4984844;28;20099;-34
2023/09/27 04:58:33;;;;;;;16.08;12.02;;;13.60;99.90;;;;;;4985440;28;20054;-34
2023/09/27 05:01:00;;;;;;;13.13;10.50;;;13.60;99.90;;;;;;4980593;28;20050;-34
2023/09/27 05:03:26;;;;;;;14.15;11.00;;;13.60;99.90;;;;;;4983745;28;20601;-34
2023/09/27 05:05:52;;;;;;;14.93;12.85;;;13.60;99.90;;;;;;4982296;28;20046;-34
2023/09/27 05:08:18;;;;;;;18.70;12.93;;;13.60;99.90;;;;;;4986803;28;20831;-34
2023/09/27 05:10:43;;;;;;;15.50;12.10;;;13.60;99.90;;;;;;4981815;28;20050;-34
2023/09/27 05:13:09;;;;;;;16.20;12.93;;;13.60;99.90;;;;;;4983037;28;20133;-34
2023/09/27 05:15:34;;;;;;;17.73;13.73;;;13.60;99.90;;;;;;4978581;28;20049;-34
2023/09/27 05:18:00;;;;;;;15.27;12.35;;;13.60;99.90;;;;;;4985007;28;20074;-34
2023/09/27 05:20:26;;;;;;;19.15;12.15;;;13.60;99.90;;;;;;4984463;28;20049;-34
2023/09/27 05:22:52;;;;;;;15.20;12.48;;;13.60;99.90;;;;;;4981903;28;20563;-34
2023/09/27 05:25:18;;;;;;;15.82;13.10;;;13.60;99.90;;;;;;4986806;28;20050;-34
2023/09/27 05:27:43;;;;;;;18.00;12.00;;;13.60;99.90;;;;;;4980654;28;20042;-34
2023/09/27 05:30:11;;;;;;;17.55;12.95;;;13.60;99.90;;;;;;4980928;28;20046;-34
2023/09/27 05:32:37;;;;;;;17.88;12.60;;;13.60;99.90;;;;;;4982874;28;20056;-34
2023/09/27 05:35:04;;;;;;;19.45;13.75;;;13.60;99.90;;;;;;4982320;28;20549;-33
2023/09/27 05:37:31;;;;;;;19.05;14.15;;;13.60;99.90;;;;;;4985739;28;20049;-33
2023/09/27 05:39:57;;;;;;;15.88;13.23;;;13.60;99.90;;;;;;4984991;28;20108;-33
2023/09/27 05:42:23;;;;;;;16.45;12.43;;;13.70;99.90;;;;;;4988465;28;20105;-33
2023/09/27 05:44:48;;;;;;;19.92;13.23;;;13.70;99.90;;;;;;4984644;28;20054;-33
2023/09/27 05:47:15;;;;;;;21.35;13.80;;;13.70;99.90;;;;;;4978333;28;20049;-33
2023/09/27 05:49:41;;;;;;;18.02;13.10;;;13.70;99.90;;;;;;4984541;28;20054;-33
2023/09/27 05:52:11;;;;;;;17.05;12.23;;;13.80;99.90;;;;;;4980521;28;20058;-33
2023/09/27 05:54:39;;;;;;;19.02;13.30;;;13.80;99.90;;;;;;4982294;28;20051;-33
2023/09/27 05:57:06;;;;;;;20.67;14.45;;;13.80;99.90;;;;;;4998251;28;20104;-33
2023/09/27 05:59:35;;;;;;;17.25;13.57;;;13.80;99.90;;;;;;4983511;28;20054;-33
2023/09/27 06:02:02;;;;;;;18.50;13.43;;;13.80;99.90;;;;;;4986416;28;20120;-33
2023/09/27 06:04:27;;;;;;;16.80;12.35;;;13.80;99.90;;;;;;4983571;28;21602;-33
2023/09/27 06:06:53;;;;;;;16.10;12.55;;;13.80;99.90;;;;;;4982836;28;20093;-34
2023/09/27 06:09:19;;;;;;;17.42;13.27;;;13.90;99.90;;;;;;4980253;28;20085;-33
2023/09/27 06:11:46;;;;;;;16.92;12.43;;;13.90;99.90;;;;;;4978776;28;20051;-34
2023/09/27 06:14:12;;;;;;;17.48;11.68;;;13.90;99.90;;;;;;4981371;28;20109;-34
2023/09/27 06:16:38;;;;;;;14.85;11.35;;;13.90;99.90;;;;;;4981330;28;20043;-33
2023/09/27 06:19:04;;;;;;;17.50;12.77;;;13.90;99.90;;;;;;4984887;28;20108;-34
2023/09/27 06:21:30;;;;;;;19.83;12.55;;;13.90;99.90;;;;;;4988154;28;20464;-34
2023/09/27 06:23:56;;;;;;;18.92;13.98;;;13.90;99.90;;;;;;4983800;28;20096;-33
2023/09/27 06:26:21;;;;;;;18.45;12.52;;;14.00;99.90;;;;;;4986796;28;20046;-35
2023/09/27 06:28:47;;;;;;;19.83;13.20;;;14.00;99.90;;;;;;4985017;28;20127;-34
2023/09/27 06:31:15;;;;;;;17.70;11.82;;;14.00;99.90;;;;;;4986434;28;20522;-34
2023/09/27 06:33:43;;;;;;;20.05;13.95;;;14.00;99.90;;;;;;4986550;28;20049;-34
2023/09/27 06:36:10;;;;;;;21.33;13.20;;;14.10;99.90;;;;;;4983493;28;20609;-33
2023/09/27 06:38:36;;;;;;;16.95;11.65;;;14.10;99.90;;;;;;4979671;28;20070;-33
2023/09/27 06:41:03;;;;;;;18.77;13.45;;;14.20;99.90;;;;;;4978844;28;20069;-33
2023/09/27 06:43:31;;;;;;;19.30;14.80;;;14.20;99.90;;;;;;4985607;28;20559;-33
2023/09/27 06:45:58;;;;;;;21.60;14.05;;;14.30;99.90;;;;;;4983080;28;20046;-33
2023/09/27 06:48:24;;;;;;;20.98;13.70;;;14.30;99.90;;;;;;4980023;28;20042;-33
2023/09/27 06:50:50;;;;;;;19.70;14.23;;;14.40;99.90;;;;;;4984257;28;20484;-33
2023/09/27 06:53:16;;;;;;;19.65;13.32;;;14.40;99.90;;;;;;4984682;28;20058;-34
2023/09/27 06:55:44;;;;;;;21.63;14.15;;;14.50;99.90;;;;;;4984389;28;20046;-33
2023/09/27 06:58:11;;;;;;;18.98;14.38;;;14.50;99.90;;;;;;4985285;28;20503;-33
2023/09/27 07:00:40;;;;;;;19.58;14.15;;;14.60;99.90;;;;;;4982380;28;20050;-33
2023/09/27 07:03:07;;;;;;;21.60;15.13;;;14.60;99.90;;;;;;4982977;28;20077;-34
2023/09/27 07:05:36;;;;;;;23.60;15.88;;;14.70;99.90;;;;;;4982049;28;20109;-34
2023/09/27 07:08:03;;;;;;;25.15;14.85;;;14.70;99.90;;;;;;4983413;28;20057;-33
2023/09/27 07:10:29;;;;;;;23.67;15.52;;;14.70;99.90;;;;;;4986167;28;20401;-33
2023/09/27 07:12:54;;;;;;;21.27;15.65;;;14.80;99.90;;;;;;4964427;28;20050;-34
2023/09/27 07:15:20;;;;;;;22.83;15.57;;;14.80;99.90;;;;;;4984464;28;20444;-34
2023/09/27 07:17:47;;;;;;;18.58;14.43;;;14.80;99.90;;;;;;4995824;28;20053;-35
2023/09/27 07:20:34;;;;;;;20.70;14.55;;;14.80;99.90;;;;;;4980885;28;20129;-34
2023/09/27 07:23:02;;;;;;;19.35;13.70;;;14.90;99.90;;;;;;4984839;28;20530;-34
2023/09/27 07:25:32;;;;;;;19.55;13.07;;;15.00;99.90;;;;;;4983919;28;20493;-34
2023/09/27 07:28:00;;;;;;;17.38;12.90;;;15.00;99.90;;;;;;4982485;28;20188;-34
2023/09/27 07:30:26;;;;;;;18.50;13.55;;;15.10;99.90;;;;;;4981437;28;20082;-34
2023/09/27 07:32:56;;;;;;;14.90;12.20;;;15.10;99.90;;;;;;4982008;28;20073;-34
2023/09/27 07:35:24;;;;;;;18.52;13.50;;;15.20;99.90;;;;;;4981882;28;20070;-34
2023/09/27 07:37:50;;;;;;;17.67;11.70;;;15.20;99.90;;;;;;4984236;28;20058;-34
2023/09/27 07:40:16;;;;;;;19.90;12.60;;;15.30;99.90;;;;;;4984911;28;20116;-34
2023/09/27 07:42:44;;;;;;;17.05;12.95;;;15.30;99.90;;;;;;4981013;28;20226;-34
2023/09/27 07:45:15;;;;;;;17.27;11.23;;;15.40;99.90;;;;;;4984973;28;20058;-34
2023/09/27 07:47:42;;;;;;;15.43;11.35;;;15.40;99.90;;;;;;4982536;28;20539;-34
2023/09/27 07:50:10;;;;;;;15.27;11.73;;;15.50;99.90;;;;;;4984831;28;20101;-34
2023/09/27 07:52:36;;;;;;;15.00;11.88;;;15.50;99.90;;;;;;4982969;28;20043;-34
2023/09/27 07:55:04;;;;;;;16.10;12.05;;;15.60;99.90;;;;;;4983960;28;20053;-34
2023/09/27 07:57:30;;;;;;;20.08;12.77;;;15.60;99.90;;;;;;4982844;28;20504;-34
2023/09/27 07:59:55;;;;;;;18.23;13.30;;;15.70;99.90;;;;;;4981848;28;20112;-34
2023/09/27 08:02:21;;;;;;;16.98;11.50;;;15.80;99.90;;;;;;4983413;28;20465;-34
2023/09/27 08:04:48;;;;;;;15.02;11.63;;;15.90;99.90;;;;;;4984109;28;20377;-34
2023/09/27 08:07:14;;;;;;;18.70;12.55;;;16.10;99.90;;;;;;4984503;28;20053;-33
2023/09/27 08:09:39;;;;;;;15.70;11.88;;;16.20;99.90;;;;;;4985379;28;20076;-33
2023/09/27 08:12:05;;;;;;;16.77;12.20;;;16.30;99.90;;;;;;4982767;28;20050;-34
2023/09/27 08:14:36;;;;;;;15.85;12.63;;;16.50;99.90;;;;;;4983856;28;20493;-34
2023/09/27 08:17:02;;;;;;;15.57;11.05;;;16.50;99.90;;;;;;4986834;28;20045;-34
2023/09/27 08:19:28;;;;;;;17.63;12.18;;;16.70;99.90;;;;;;4987598;28;20431;-35
2023/09/27 08:21:55;;;;;;;17.23;12.70;;;16.70;99.90;;;;;;4985829;28;20058;-34
2023/09/27 08:24:21;;;;;;;17.92;11.52;;;16.70;99.90;;;;;;4982682;28;20054;-34
2023/09/27 08:26:47;;;;;;;14.98;12.23;;;16.80;99.90;;;;;;4984350;28;20044;-34
2023/09/27 08:29:13;;;;;;;16.95;12.05;;;16.90;99.90;;;;;;4984689;28;20133;-34
2023/09/27 08:31:39;;;;;;;17.13;11.32;;;17.00;99.90;;;;;;4981451;28;20081;-34
2023/09/27 08:34:05;;;;;;;14.55;11.10;;;17.10;99.90;;;;;;4987989;28;20062;-34
2023/09/27 08:36:31;;;;;;;19.45;12.90;;;17.20;99.90;;;;;;4988291;28;20052;-34
2023/09/27 08:38:57;;;;;;;14.57;11.05;;;17.30;99.90;;;;;;4986415;28;20069;-34
2023/09/27 08:41:27;;;;;;;16.02;11.50;;;17.40;99.90;;;;;;4986089;28;20069;-34
2023/09/27 08:43:55;;;;;;;13.93;9.75;;;17.50;99.90;;;;;;4982349;28;20062;-33
2023/09/27 08:46:23;;;;;;;16.92;12.02;;;17.50;99.90;;;;;;4986056;28;20412;-34
2023/09/27 08:48:51;;;;;;;17.13;12.02;;;17.60;99.90;;;;;;4980832;28;20054;-33
2023/09/27 08:51:17;;;;;;;21.27;13.35;;;17.70;99.90;;;;;;4987146;28;20054;-34
2023/09/27 08:53:43;;;;;;;16.88;12.73;;;17.80;99.90;;;;;;4986024;28;20046;-33
2023/09/27 08:56:14;;;;;;;14.57;11.63;;;17.90;99.90;;;;;;4986170;28;21247;-34
2023/09/27 08:58:40;;;;;;;16.83;12.20;;;18.00;99.90;;;;;;4981868;28;20113;-34
2023/09/27 09:01:09;;;;;;;15.60;11.18;;;18.10;99.90;;;;;;4983439;28;20125;-33
2023/09/27 09:03:37;;;;;;;15.82;10.65;;;18.30;99.90;;;;;;4987296;28;20054;-33
2023/09/27 09:06:10;;;;;;;15.50;12.68;;;18.40;99.90;;;;;;4982776;28;20134;-34
2023/09/27 09:08:43;;;;;;;14.43;10.82;;;18.50;99.90;;;;;;4987381;28;20046;-34
2023/09/27 09:11:09;;;;;;;;;;;18.70;99.90;;;;;;4970127;28;20104;-34
2023/09/27 09:13:59;;;;;;;13.65;10.30;;;18.80;99.90;;;;;;4983233;28;19929;-34
2023/09/27 09:16:25;;;;;;;14.88;11.20;;;19.00;99.90;;;;;;4986013;28;20712;-34
2023/09/27 09:18:54;;;;;;;13.77;10.00;;;19.10;99.90;;;;;;4987021;28;20493;-34
2023/09/27 09:21:20;;;;;;;20.90;12.18;;;19.20;99.90;;;;;;4986362;28;20050;-34
2023/09/27 09:23:49;;;;;;;14.38;10.60;;;19.30;99.90;;;;;;4978581;28;20043;-34
2023/09/27 09:26:29;;;;;;;13.85;10.70;;;19.40;99.90;;;;;;4978123;28;20046;-34
2023/09/27 09:28:57;;;;;;;16.40;11.65;;;19.40;99.90;;;;;;4983599;28;20487;-34
2023/09/27 09:31:24;;;;;;;14.15;10.75;;;19.40;99.90;;;;;;4981091;28;20055;-34
2023/09/27 09:34:03;;;;;;;11.70;9.90;;;19.40;99.90;;;;;;4988599;28;20496;-34
2023/09/27 09:36:29;;;;;;;14.77;9.00;;;19.40;99.90;;;;;;4982966;28;20038;-34
2023/09/27 09:39:05;;;;;;;19.20;10.70;;;19.40;99.90;;;;;;4980581;28;20049;-34
2023/09/27 09:41:51;;;;;;;16.02;10.15;;;19.50;99.90;;;;;;4982038;28;22016;-34
2023/09/27 09:44:19;;;;;;;13.07;9.80;;;19.50;99.90;;;;;;4980454;28;20047;-34
2023/09/27 09:46:45;;;;;;;17.65;11.23;;;19.60;99.90;;;;;;4985865;28;20294;-34
2023/09/27 09:49:12;;;;;;;14.10;9.50;;;19.90;99.90;;;;;;4984835;28;20480;-34
2023/09/27 09:51:41;;;;;;;12.98;8.90;;;20.00;99.90;;;;;;4985516;28;20064;-35
2023/09/27 09:54:08;;;;;;;13.35;8.20;;;20.10;99.90;;;;;;4984152;28;20065;-34
2023/09/27 09:56:38;;;;;;;12.15;9.55;;;20.10;99.90;;;;;;4986933;28;20085;-35
2023/09/27 09:59:07;;;;;;;13.13;9.20;;;20.20;99.90;;;;;;4982700;28;21329;-34
2023/09/27 10:01:39;;;;;;;10.95;8.27;;;20.20;99.90;;;;;;4983699;28;20050;-34
2023/09/27 10:04:05;;;;;;;11.85;8.55;;;20.20;99.90;;;;;;4983518;28;20351;-35
2023/09/27 10:06:32;;;;;;;11.07;8.77;;;20.20;99.90;;;;;;4964609;28;20050;-34
2023/09/27 10:09:01;;;;;;;13.23;8.88;;;20.30;99.90;;;;;;4982263;28;20058;-35
2023/09/27 10:11:27;;;;;;;12.88;8.95;;;20.40;99.90;;;;;;4983770;28;20042;-34
2023/09/27 10:13:54;;;;;;;13.23;8.60;;;20.60;99.90;;;;;;4979709;28;20053;-34
2023/09/27 10:16:23;;;;;;;11.90;8.38;;;20.70;99.90;;;;;;4980527;28;20523;-34
2023/09/27 10:18:49;;;;;;;12.63;8.32;;;20.80;99.90;;;;;;4983809;28;20137;-34
2023/09/27 10:21:15;;;;;;;13.27;8.95;;;20.80;99.90;;;;;;4981711;28;20069;-33
2023/09/27 10:23:47;;;;;;;13.55;8.93;;;20.90;99.90;;;;;;4979432;28;20051;-34
2023/09/27 10:26:26;;;;;;;14.15;8.38;;;20.90;99.90;;;;;;4978224;28;20489;-34
2023/09/27 10:29:03;;;;;;;12.93;8.13;;;20.80;99.90;;;;;;4980089;28;20053;-34
2023/09/27 10:31:58;;;;;;;12.13;7.50;;;20.90;99.90;;;;;;4983069;28;20105;-34
2023/09/27 10:34:33;;;;;;;12.40;6.57;;;21.00;99.90;;;;;;4981210;28;20133;-35
2023/09/27 10:37:00;;;;;;;11.43;7.22;;;21.10;99.90;;;;;;4980419;28;20046;-34
2023/09/27 10:39:26;;;;;;;10.90;7.18;;;21.20;99.90;;;;;;4982471;28;20436;-35
2023/09/27 10:41:53;;;;;;;10.10;6.20;;;21.40;99.90;;;;;;4979266;28;20058;-34
2023/09/27 10:44:31;;;;;;;9.57;6.57;;;21.40;99.90;;;;;;4977411;28;20050;-34
2023/09/27 10:47:01;;;;;;;10.77;7.85;;;21.50;99.90;;;;;;4977538;28;20488;-34
2023/09/27 10:49:37;;;;;;;11.35;7.45;;;21.60;99.90;;;;;;4986250;28;20051;-34
2023/09/27 10:52:03;;;;;;;11.25;7.00;;;21.60;99.90;;;;;;4982768;28;20042;-35
2023/09/27 10:54:29;;;;;;;12.25;6.95;;;21.50;99.90;;;;;;4983467;28;20108;-34
2023/09/27 10:56:56;;;;;;;12.40;7.03;;;21.50;99.90;;;;;;4981498;28;20050;-35
2023/09/27 10:59:23;;;;;;;15.05;6.35;;;21.50;99.90;;;;;;4977829;28;20492;-35
2023/09/27 11:01:48;;;;;;;10.15;6.80;;;21.50;99.90;;;;;;4977453;28;20488;-34
2023/09/27 11:04:14;;;;;;;12.25;6.50;;;21.50;99.90;;;;;;4982588;28;20061;-34
2023/09/27 11:06:45;;;;;;;9.45;5.78;;;21.50;99.90;;;;;;4979480;28;20042;-34
2023/09/27 11:09:16;;;;;;;8.27;5.72;;;21.60;99.90;;;;;;4981385;28;20070;-33
2023/09/27 11:11:47;;;;;;;12.15;6.22;;;21.60;99.90;;;;;;4981516;28;20519;-34
2023/09/27 11:14:29;;;;;;;11.30;6.40;;;21.80;99.90;;;;;;4982252;28;20096;-34
2023/09/27 11:16:55;;;;;;;;;;;21.80;99.90;;;;;;4982768;28;20066;-34
2023/09/27 11:19:30;;;;;;;8.18;5.90;;;21.90;99.90;;;;;;4982439;28;19975;-34
2023/09/27 11:21:56;;;;;;;11.20;6.22;;;22.00;99.90;;;;;;4979563;28;20062;-34
2023/09/27 11:24:23;;;;;;;8.00;4.95;;;22.00;99.90;;;;;;4979315;28;20077;-34
2023/09/27 11:26:48;;;;;;;7.80;5.28;;;22.10;99.90;;;;;;4980531;28;20104;-34
2023/09/27 11:29:14;;;;;;;7.97;5.45;;;22.20;99.90;;;;;;4983631;28;20452;-34
2023/09/27 11:31:40;;;;;;;11.02;6.82;;;22.30;99.90;;;;;;4983258;28;20381;-34
2023/09/27 11:34:20;;;;;;;10.65;6.45;;;22.30;99.90;;;;;;4982696;28;20479;-34
2023/09/27 11:36:51;;;;;;;9.43;6.55;;;22.20;99.90;;;;;;4984729;28;20049;-34
2023/09/27 11:39:18;;;;;;;7.97;5.97;;;22.20;99.90;;;;;;4981111;28;20054;-34
2023/09/27 11:41:45;;;;;;;11.10;6.80;;;22.10;99.90;;;;;;4981645;28;20050;-34
2023/09/27 11:44:23;;;;;;;9.88;6.80;;;22.10;99.90;;;;;;4981698;28;20085;-34
2023/09/27 11:46:49;;;;;;;9.32;7.32;;;22.20;99.90;;;;;;4978464;28;20457;-34
2023/09/27 11:49:16;;;;;;;10.93;7.55;;;22.20;99.90;;;;;;4988957;28;20181;-34
2023/09/27 11:51:43;;;;;;;10.73;7.25;;;22.30;99.90;;;;;;4990160;28;20136;-34
2023/09/27 11:54:09;;;;;;;8.88;6.78;;;22.40;99.90;;;;;;4984293;28;20050;-35
2023/09/27 11:56:36;;;;;;;10.48;7.00;;;22.50;99.90;;;;;;4983456;28;20046;-35
2023/09/27 11:59:05;;;;;;;10.27;7.00;;;22.60;99.90;;;;;;4963841;28;20058;-35
2023/09/27 12:01:31;;;;;;;9.57;6.43;;;22.90;99.90;;;;;;4983948;28;20506;-35
2023/09/27 12:03:58;;;;;;;10.48;6.97;;;23.00;99.90;;;;;;4986678;28;20536;-35
2023/09/27 12:06:25;;;;;;;10.73;6.68;;;23.10;99.90;;;;;;4984397;28;20077;-35
2023/09/27 12:08:51;;;;;;;9.13;6.70;;;23.00;99.90;;;;;;4985758;28;20050;-35
2023/09/27 12:11:17;;;;;;;8.73;6.15;;;23.10;99.90;;;;;;4985828;28;20496;-35
2023/09/27 12:13:42;;;;;;;8.38;6.00;;;23.50;99.90;;;;;;4982856;28;20050;-35
2023/09/27 12:16:09;;;;;;;8.93;5.65;;;23.90;99.90;;;;;;4981984;28;20412;-35
2023/09/27 12:18:34;;;;;;;9.63;5.68;;;24.10;99.90;;;;;;4982092;28;20456;-35
2023/09/27 12:21:00;;;;;;;10.85;5.97;;;24.20;99.90;;;;;;4981255;28;20090;-35
2023/09/27 12:23:26;;;;;;;7.28;5.63;;;24.40;99.90;;;;;;4982887;28;20148;-35
2023/09/27 12:25:52;;;;;;;7.35;5.70;;;24.50;99.90;;;;;;4984976;28;20181;-35
2023/09/27 12:28:19;;;;;;;9.32;5.43;;;24.70;99.90;;;;;;4987692;28;20054;-35
2023/09/27 12:30:44;;;;;;;7.32;4.80;;;25.10;99.90;;;;;;4987082;28;20050;-35
2023/09/27 12:33:12;;;;;;;7.57;4.88;;;25.60;99.90;;;;;;4983743;28;20053;-35